Time;durP1;ratioP1;P1;durP2;ratioP2;P2;SDS_P1;SDS_P2;PMS_P1;PMS_P2;Temp;Humidity;BMP_temperature;BMP_pressure;BME280_temperature;BME280_humidity;BME280_pressure;Samples;Min_cycle;Max_cycle;Signal;HPM_P1;HPM_P2
2024/04/06 00:00:17;;;;;;;1.63;1.13;;;;;;;;;;6018569;23;20188;-86
2024/04/06 00:02:45;;;;;;;1.43;1.27;;;;;;;;;;6041995;23;20169;-86
2024/04/06 00:05:12;;;;;;;1.30;1.17;;;;;;;;;;6089615;23;20531;-87
2024/04/06 00:07:41;;;;;;;1.30;1.20;;;;;;;;;;6042253;23;20197;-86
2024/04/06 00:10:07;;;;;;;2.40;1.40;;;;;;;;;;6041050;23;20285;-87
2024/04/06 00:12:36;;;;;;;1.57;1.10;;;;;;;;;;6042614;23;20173;-86
2024/04/06 00:15:07;;;;;;;2.10;1.50;;;;;;;;;;6018760;23;20173;-86
2024/04/06 00:17:33;;;;;;;1.57;1.47;;;;;;;;;;6041915;23;20233;-87
2024/04/06 00:20:08;;;;;;;1.40;1.30;;;;;;;;;;6020003;23;20509;-86
2024/04/06 00:22:36;;;;;;;1.67;1.27;;;;;;;;;;6019004;23;20177;-86
2024/04/06 00:25:03;;;;;;;1.40;1.30;;;;;;;;;;6065555;23;20171;-86
2024/04/06 00:27:31;;;;;;;2.13;1.40;;;;;;;;;;6042570;23;20182;-86
2024/04/06 00:30:00;;;;;;;1.53;1.43;;;;;;;;;;6043409;23;20194;-87
2024/04/06 00:32:27;;;;;;;2.10;1.40;;;;;;;;;;6065526;23;20167;-86
2024/04/06 00:34:53;;;;;;;2.83;1.40;;;;;;;;;;6065798;23;20258;-86
2024/04/06 00:37:19;;;;;;;2.27;1.73;;;;;;;;;;6065213;23;20285;-86
2024/04/06 00:39:45;;;;;;;2.13;1.67;;;;;;;;;;6018163;23;20184;-87
2024/04/06 00:42:11;;;;;;;2.33;1.60;;;;;;;;;;6041782;23;20264;-87
2024/04/06 00:44:37;;;;;;;1.67;1.50;;;;;;;;;;6018011;23;20172;-86
2024/04/06 00:47:03;;;;;;;1.53;1.40;;;;;;;;;;6041379;23;20201;-87
2024/04/06 00:49:32;;;;;;;2.37;1.60;;;;;;;;;;6018350;23;20199;-87
2024/04/06 00:51:58;;;;;;;1.50;1.40;;;;;;;;;;6065847;23;20252;-86
2024/04/06 00:54:24;;;;;;;1.70;1.60;;;;;;;;;;6042235;23;20173;-86
2024/04/06 00:56:54;;;;;;;1.80;1.70;;;;;;;;;;6018233;23;20608;-86
2024/04/06 00:59:20;;;;;;;1.77;1.53;;;;;;;;;;6065814;23;20196;-86
2024/04/06 01:01:48;;;;;;;1.67;1.57;;;;;;;;;;6041623;23;20177;-86
2024/04/06 01:04:17;;;;;;;1.73;1.57;;;;;;;;;;6065371;23;20165;-86
2024/04/06 01:06:47;;;;;;;1.77;1.50;;;;;;;;;;6041737;23;20189;-86
2024/04/06 01:09:14;;;;;;;1.57;1.37;;;;;;;;;;6065660;23;20173;-87
2024/04/06 01:11:42;;;;;;;2.43;1.77;;;;;;;;;;6065594;23;20621;-86
2024/04/06 01:14:09;;;;;;;1.73;1.63;;;;;;;;;;6042845;23;20177;-86
2024/04/06 01:16:35;;;;;;;2.73;1.57;;;;;;;;;;6041206;23;20255;-86
2024/04/06 01:19:02;;;;;;;2.03;1.60;;;;;;;;;;6018321;23;20527;-86
2024/04/06 01:21:28;;;;;;;2.40;1.40;;;;;;;;;;6042234;23;20193;-86
2024/04/06 01:23:55;;;;;;;2.20;2.00;;;;;;;;;;6066448;23;20176;-86
2024/04/06 01:26:24;;;;;;;2.47;2.03;;;;;;;;;;6019450;23;20568;-86
2024/04/06 01:28:50;;;;;;;2.27;1.70;;;;;;;;;;6042765;23;20257;-86
2024/04/06 01:31:19;;;;;;;2.10;1.53;;;;;;;;;;6042292;23;20190;-86
2024/04/06 01:33:48;;;;;;;4.17;1.93;;;;;;;;;;6066264;23;20184;-86
2024/04/06 01:36:15;;;;;;;1.80;1.50;;;;;;;;;;6043240;23;20612;-86
2024/04/06 01:38:41;;;;;;;3.13;1.90;;;;;;;;;;6047855;23;20179;-86
2024/04/06 01:41:07;;;;;;;1.70;1.60;;;;;;;;;;6023853;23;20168;-86
2024/04/06 01:43:33;;;;;;;2.33;1.43;;;;;;;;;;6023520;23;20219;-86
2024/04/06 01:45:59;;;;;;;1.90;1.70;;;;;;;;;;6022912;23;20179;-86
2024/04/06 01:48:25;;;;;;;1.70;1.60;;;;;;;;;;6023618;23;20211;-86
2024/04/06 01:50:51;;;;;;;2.00;1.80;;;;;;;;;;6023820;23;20211;-87
2024/04/06 01:53:18;;;;;;;2.10;1.90;;;;;;;;;;6023856;23;20172;-86
2024/04/06 01:55:45;;;;;;;3.20;2.00;;;;;;;;;;6023866;23;20243;-86
2024/04/06 01:58:11;;;;;;;2.40;2.00;;;;;;;;;;6023807;23;20203;-87
2024/04/06 02:00:37;;;;;;;2.67;2.00;;;;;;;;;;6023225;23;20164;-86
2024/04/06 02:03:04;;;;;;;2.73;1.90;;;;;;;;;;6023827;23;20239;-86
2024/04/06 02:05:33;;;;;;;2.27;1.93;;;;;;;;;;6070922;23;20168;-86
2024/04/06 02:08:00;;;;;;;2.10;1.90;;;;;;;;;;6048444;23;20172;-87
2024/04/06 02:10:29;;;;;;;2.20;1.83;;;;;;;;;;6025461;23;20255;-86
2024/04/06 02:12:55;;;;;;;2.10;1.80;;;;;;;;;;6026119;23;20179;-86
2024/04/06 02:15:21;;;;;;;2.13;1.80;;;;;;;;;;6025516;23;20184;-86
2024/04/06 02:17:48;;;;;;;3.67;1.90;;;;;;;;;;6026168;23;20161;-87
2024/04/06 02:20:21;;;;;;;2.23;1.87;;;;;;;;;;6053500;23;20153;-85
2024/04/06 02:22:51;;;;;;;3.50;1.90;;;;;;;;;;6051249;23;20216;-87
2024/04/06 02:25:18;;;;;;;2.40;1.70;;;;;;;;;;6051120;23;20172;-86
2024/04/06 02:27:45;;;;;;;2.60;1.80;;;;;;;;;;6050196;23;20255;-86
2024/04/06 02:30:12;;;;;;;2.77;1.77;;;;;;;;;;6027108;23;20287;-86
2024/04/06 02:32:39;;;;;;;1.90;1.80;;;;;;;;;;6051330;23;20694;-86
2024/04/06 02:35:06;;;;;;;2.00;1.80;;;;;;;;;;6074334;23;20691;-86
2024/04/06 02:37:32;;;;;;;2.10;1.90;;;;;;;;;;6022307;23;20219;-85
2024/04/06 02:39:59;;;;;;;2.87;2.00;;;;;;;;;;6069938;23;20683;-86
2024/04/06 02:42:26;;;;;;;2.43;1.90;;;;;;;;;;6045861;23;20170;-86
2024/04/06 02:44:54;;;;;;;1.70;1.60;;;;;;;;;;6023141;23;20332;-86
2024/04/06 02:47:20;;;;;;;2.10;1.90;;;;;;;;;;6046216;23;20268;-87
2024/04/06 02:49:47;;;;;;;2.00;1.73;;;;;;;;;;6046054;23;20556;-86
2024/04/06 02:52:13;;;;;;;2.07;1.70;;;;;;;;;;6070129;23;20196;-86
2024/04/06 02:54:41;;;;;;;2.27;1.83;;;;;;;;;;6046104;23;20173;-86
2024/04/06 02:57:07;;;;;;;2.07;1.60;;;;;;;;;;6021663;23;20169;-86
2024/04/06 02:59:33;;;;;;;2.13;1.70;;;;;;;;;;6069369;23;20165;-85
2024/04/06 03:02:00;;;;;;;2.00;1.67;;;;;;;;;;6045641;23;20572;-86
2024/04/06 03:04:28;;;;;;;3.10;1.97;;;;;;;;;;6046402;23;20699;-86
2024/04/06 03:06:55;;;;;;;1.87;1.70;;;;;;;;;;6045879;23;20259;-86
2024/04/06 03:09:21;;;;;;;2.03;1.80;;;;;;;;;;6069154;23;20209;-86
2024/04/06 03:11:47;;;;;;;4.20;2.23;;;;;;;;;;6021745;23;20256;-84
2024/04/06 03:14:14;;;;;;;2.03;1.63;;;;;;;;;;6069514;23;20187;-86
2024/04/06 03:16:40;;;;;;;2.70;1.70;;;;;;;;;;6045729;23;20174;-86
2024/04/06 03:19:06;;;;;;;2.70;1.73;;;;;;;;;;6046337;23;20180;-86
2024/04/06 03:21:33;;;;;;;2.53;1.80;;;;;;;;;;6070178;23;20245;-86
2024/04/06 03:24:02;;;;;;;2.03;1.80;;;;;;;;;;6046671;23;20162;-86
2024/04/06 03:26:28;;;;;;;2.30;1.70;;;;;;;;;;6045520;23;20263;-86
2024/04/06 03:28:57;;;;;;;2.73;1.90;;;;;;;;;;6070071;23;20248;-86
2024/04/06 03:31:23;;;;;;;4.20;1.77;;;;;;;;;;6069470;23;20197;-86
2024/04/06 03:33:50;;;;;;;2.00;1.80;;;;;;;;;;6046347;23;20237;-86
2024/04/06 03:36:16;;;;;;;2.83;1.70;;;;;;;;;;6070402;23;20197;-86
2024/04/06 03:38:45;;;;;;;1.90;1.80;;;;;;;;;;6028073;23;20204;-86
2024/04/06 03:41:11;;;;;;;1.80;1.70;;;;;;;;;;6027188;23;20164;-86
2024/04/06 03:43:37;;;;;;;2.67;1.70;;;;;;;;;;6027298;23;20207;-86
2024/04/06 03:46:04;;;;;;;2.73;1.80;;;;;;;;;;6074605;23;20172;-86
2024/04/06 03:48:32;;;;;;;1.97;1.63;;;;;;;;;;6026601;23;20165;-86
2024/04/06 03:50:59;;;;;;;2.10;1.90;;;;;;;;;;6027062;23;20216;-85
2024/04/06 03:53:33;;;;;;;2.10;1.90;;;;;;;;;;6026509;23;20247;-85
2024/04/06 03:56:04;;;;;;;2.70;1.77;;;;;;;;;;6025980;23;20168;-85
2024/04/06 03:58:31;;;;;;;2.10;1.90;;;;;;;;;;6026158;23;20168;-86
2024/04/06 04:00:58;;;;;;;1.80;1.70;;;;;;;;;;6026624;23;20172;-86
2024/04/06 04:03:27;;;;;;;2.07;1.67;;;;;;;;;;6027250;23;20652;-86
2024/04/06 04:05:53;;;;;;;1.83;1.70;;;;;;;;;;6050477;23;20180;-85
2024/04/06 04:08:19;;;;;;;1.83;1.40;;;;;;;;;;6074136;23;20673;-86
2024/04/06 04:10:45;;;;;;;2.73;1.70;;;;;;;;;;6049988;23;20218;-86
2024/04/06 04:13:11;;;;;;;2.50;1.70;;;;;;;;;;6073488;23;20624;-86
2024/04/06 04:15:40;;;;;;;3.23;1.83;;;;;;;;;;6050306;23;20176;-85
2024/04/06 04:18:12;;;;;;;1.97;1.60;;;;;;;;;;6050910;23;20177;-86
2024/04/06 04:20:39;;;;;;;1.83;1.73;;;;;;;;;;6050978;23;20179;-85
2024/04/06 04:23:05;;;;;;;1.87;1.70;;;;;;;;;;6050604;23;20174;-86
2024/04/06 04:25:34;;;;;;;1.70;1.40;;;;;;;;;;6026055;23;20227;-86
2024/04/06 04:28:01;;;;;;;2.17;1.80;;;;;;;;;;6026320;23;20228;-86
2024/04/06 04:30:27;;;;;;;2.60;1.63;;;;;;;;;;6026102;23;20188;-86
2024/04/06 04:32:54;;;;;;;1.87;1.77;;;;;;;;;;6026236;23;20204;-86
2024/04/06 04:35:20;;;;;;;1.73;1.63;;;;;;;;;;6026155;23;20200;-85
2024/04/06 04:37:46;;;;;;;2.00;1.57;;;;;;;;;;6044758;23;20222;-86
2024/04/06 04:40:12;;;;;;;2.20;1.70;;;;;;;;;;6021274;23;20214;-85
2024/04/06 04:42:39;;;;;;;2.87;1.60;;;;;;;;;;6045189;23;20169;-86
2024/04/06 04:45:09;;;;;;;2.43;1.80;;;;;;;;;;6021540;23;20195;-86
2024/04/06 04:47:35;;;;;;;1.93;1.70;;;;;;;;;;6068948;23;20165;-86
2024/04/06 04:50:03;;;;;;;1.83;1.53;;;;;;;;;;6020628;23;20261;-86
2024/04/06 04:52:32;;;;;;;2.17;1.90;;;;;;;;;;6044538;23;20175;-86
2024/04/06 04:54:58;;;;;;;2.00;1.80;;;;;;;;;;6044894;23;20188;-86
2024/04/06 04:57:25;;;;;;;2.23;1.80;;;;;;;;;;6044669;23;20679;-85
2024/04/06 04:59:51;;;;;;;2.20;1.70;;;;;;;;;;6068548;23;20170;-86
2024/04/06 05:02:20;;;;;;;2.27;1.80;;;;;;;;;;6044880;23;20172;-86
2024/04/06 05:04:46;;;;;;;2.00;1.80;;;;;;;;;;6044550;23;20193;-86
2024/04/06 05:07:12;;;;;;;2.13;1.67;;;;;;;;;;6044300;23;20273;-86
2024/04/06 05:09:41;;;;;;;2.00;1.80;;;;;;;;;;6044870;23;20192;-86
2024/04/06 05:12:07;;;;;;;3.00;1.80;;;;;;;;;;6044034;23;20173;-86
2024/04/06 05:14:34;;;;;;;4.27;1.90;;;;;;;;;;6044193;23;20632;-86
2024/04/06 05:17:00;;;;;;;1.70;1.60;;;;;;;;;;6045506;23;20169;-86
2024/04/06 05:19:26;;;;;;;1.63;1.53;;;;;;;;;;6045852;23;20232;-86
2024/04/06 05:21:52;;;;;;;1.70;1.60;;;;;;;;;;6044852;23;20563;-86
2024/04/06 05:24:18;;;;;;;2.53;1.93;;;;;;;;;;6069289;23;20509;-86
2024/04/06 05:26:45;;;;;;;1.87;1.77;;;;;;;;;;6069077;23;20555;-86
2024/04/06 05:29:12;;;;;;;2.30;1.70;;;;;;;;;;6045133;23;20180;-86
2024/04/06 05:31:45;;;;;;;2.10;1.80;;;;;;;;;;6020961;23;20173;-86
2024/04/06 05:34:15;;;;;;;2.57;1.80;;;;;;;;;;6044345;23;20170;-86
2024/04/06 05:36:41;;;;;;;2.33;1.97;;;;;;;;;;6048504;23;20282;-86
2024/04/06 05:39:07;;;;;;;2.90;2.00;;;;;;;;;;6026334;23;20172;-86
2024/04/06 05:41:33;;;;;;;2.00;1.90;;;;;;;;;;6049741;23;20172;-87
2024/04/06 05:44:00;;;;;;;2.40;2.00;;;;;;;;;;6025312;23;20679;-86
2024/04/06 05:46:28;;;;;;;2.83;2.00;;;;;;;;;;6047763;23;20260;-86
2024/04/06 05:48:55;;;;;;;2.00;1.80;;;;;;;;;;6023715;23;20256;-86
2024/04/06 05:51:21;;;;;;;3.10;2.10;;;;;;;;;;6024372;23;20199;-87
2024/04/06 05:53:49;;;;;;;2.47;2.20;;;;;;;;;;6047086;23;20164;-86
2024/04/06 05:56:14;;;;;;;2.60;1.90;;;;;;;;;;6021968;23;20196;-86
2024/04/06 05:58:41;;;;;;;2.33;2.13;;;;;;;;;;6045667;23;20168;-86
2024/04/06 06:01:07;;;;;;;2.30;2.10;;;;;;;;;;6046427;23;20223;-86
2024/04/06 06:03:33;;;;;;;3.73;2.30;;;;;;;;;;6046551;23;20247;-87
2024/04/06 06:05:59;;;;;;;2.93;2.53;;;;;;;;;;6046077;23;20177;-87
2024/04/06 06:08:25;;;;;;;3.77;2.30;;;;;;;;;;6022297;23;20164;-87
2024/04/06 06:10:54;;;;;;;2.67;2.40;;;;;;;;;;6022904;23;20196;-86
2024/04/06 06:13:41;;;;;;;2.50;2.20;;;;;;;;;;6071561;23;20498;-87
2024/04/06 06:16:08;;;;;;;3.73;2.53;;;;;;;;;;6045721;23;20169;-88
2024/04/06 06:18:36;;;;;;;3.77;2.33;;;;;;;;;;6023365;23;20191;-87
2024/04/06 06:21:06;;;;;;;3.80;2.70;;;;;;;;;;6046707;23;20164;-86
2024/04/06 06:23:32;;;;;;;2.47;2.10;;;;;;;;;;6022461;23;20229;-87
2024/04/06 06:25:59;;;;;;;2.83;2.63;;;;;;;;;;6046314;23;20174;-87
2024/04/06 06:28:24;;;;;;;2.43;2.20;;;;;;;;;;6045823;23;20164;-87
2024/04/06 06:30:50;;;;;;;2.57;2.37;;;;;;;;;;6022661;23;20196;-87
2024/04/06 06:33:21;;;;;;;2.83;2.33;;;;;;;;;;6046293;23;20557;-87
2024/04/06 06:35:54;;;;;;;3.50;1.90;;;;;;;;;;6069959;23;20188;-86
2024/04/06 06:38:20;;;;;;;2.00;1.80;;;;;;;;;;6022429;23;20279;-86
2024/04/06 06:40:49;;;;;;;2.67;1.70;;;;;;;;;;6022593;23;20286;-87
2024/04/06 06:43:16;;;;;;;2.73;1.80;;;;;;;;;;6022229;23;20171;-86
2024/04/06 06:45:43;;;;;;;3.07;1.90;;;;;;;;;;6046276;23;20183;-86
2024/04/06 06:48:09;;;;;;;3.50;1.90;;;;;;;;;;6045607;23;20238;-86
2024/04/06 06:50:38;;;;;;;2.40;1.73;;;;;;;;;;6022702;23;20288;-86
2024/04/06 06:53:05;;;;;;;3.67;2.10;;;;;;;;;;6022533;23;20629;-86
2024/04/06 06:55:31;;;;;;;4.60;1.83;;;;;;;;;;6047334;23;20169;-86
2024/04/06 06:57:59;;;;;;;2.37;2.10;;;;;;;;;;6024590;23;20609;-85
2024/04/06 07:00:25;;;;;;;3.33;2.20;;;;;;;;;;6047456;23;20226;-86
2024/04/06 07:02:51;;;;;;;2.42;1.95;;;;;;;;;;6023736;23;20176;-86
2024/04/06 07:05:18;;;;;;;2.30;2.10;;;;;;;;;;6024295;23;20176;-86
2024/04/06 07:07:58;;;;;;;2.33;1.97;;;;;;;;;;6047119;23;20207;-85
2024/04/06 07:10:24;;;;;;;4.73;2.20;;;;;;;;;;6023656;23;20188;-85
2024/04/06 07:12:50;;;;;;;2.20;2.00;;;;;;;;;;6023971;23;20181;-86
2024/04/06 07:15:17;;;;;;;2.40;2.20;;;;;;;;;;6047201;23;20175;-85
2024/04/06 07:17:43;;;;;;;5.75;2.40;;;;;;;;;;6046842;23;20178;-85
2024/04/06 07:20:10;;;;;;;3.00;2.03;;;;;;;;;;6071045;23;20186;-85
2024/04/06 07:22:37;;;;;;;2.10;1.90;;;;;;;;;;6023425;23;20258;-85
2024/04/06 07:25:07;;;;;;;3.55;2.75;;;;;;;;;;6045922;23;20172;-86
2024/04/06 07:27:33;;;;;;;5.25;3.45;;;;;;;;;;6020296;23;20173;-85
2024/04/06 07:30:00;;;;;;;5.57;4.20;;;;;;;;;;6046606;23;20335;-85
2024/04/06 07:32:26;;;;;;;6.65;4.78;;;;;;;;;;6023545;23;20177;-85
2024/04/06 07:34:52;;;;;;;4.97;3.47;;;;;;;;;;6048066;23;20184;-85
2024/04/06 07:37:21;;;;;;;7.03;3.53;;;;;;;;;;6019208;23;20288;-85
2024/04/06 07:39:47;;;;;;;2.95;2.53;;;;;;;;;;6042636;23;20169;-85
2024/04/06 07:42:13;;;;;;;3.13;1.60;;;;;;;;;;6066125;23;20176;-85
2024/04/06 07:44:39;;;;;;;3.45;1.50;;;;;;;;;;6018417;23;20173;-85
2024/04/06 07:47:05;;;;;;;1.73;1.35;;;;;;;;;;6042231;23;20175;-86
2024/04/06 07:49:32;;;;;;;1.52;1.35;;;;;;;;;;6065879;23;20197;-85
2024/04/06 07:51:58;;;;;;;2.53;1.40;;;;;;;;;;6018601;23;20246;-85
2024/04/06 07:54:24;;;;;;;2.10;1.20;;;;;;;;;;6041656;23;20251;-86
2024/04/06 07:56:53;;;;;;;3.33;1.40;;;;;;;;;;6042038;23;20176;-86
2024/04/06 07:59:19;;;;;;;1.75;1.40;;;;;;;;;;6018753;23;20169;-84
2024/04/06 08:01:45;;;;;;;2.28;1.40;;;;;;;;;;6066209;23;20172;-85
2024/04/06 08:04:17;;;;;;;2.13;1.50;;;;;;;;;;6042227;23;20216;-85
2024/04/06 08:06:44;;;;;;;1.50;1.40;;;;;;;;;;6017941;23;20170;-85
2024/04/06 08:09:11;;;;;;;1.50;1.40;;;;;;;;;;6042256;23;20274;-85
2024/04/06 08:11:40;;;;;;;2.15;1.63;;;;;;;;;;6018227;23;20276;-85
2024/04/06 08:14:07;;;;;;;1.80;1.50;;;;;;;;;;6066203;23;20178;-85
2024/04/06 08:16:34;;;;;;;2.83;1.52;;;;;;;;;;6064149;23;20612;-85
2024/04/06 08:19:01;;;;;;;2.55;1.20;;;;;;;;;;6042581;23;20174;-85
2024/04/06 08:21:28;;;;;;;2.85;1.20;;;;;;;;;;6065986;23;20169;-85
2024/04/06 08:23:54;;;;;;;1.98;1.33;;;;;;;;;;6090135;23;20179;-85
2024/04/06 08:26:24;;;;;;;3.95;1.75;;;;;;;;;;6042732;23;20169;-85
2024/04/06 08:28:56;;;;;;;1.70;1.60;;;;;;;;;;6042882;23;20167;-85
2024/04/06 08:31:23;;;;;;;2.85;1.70;;;;;;;;;;6018603;23;20244;-85
2024/04/06 08:33:49;;;;;;;1.55;1.42;;;;;;;;;;6018454;23;20652;-85
2024/04/06 08:36:15;;;;;;;1.88;1.70;;;;;;;;;;6040966;23;20173;-85
2024/04/06 08:38:41;;;;;;;2.15;1.80;;;;;;;;;;6022335;23;20259;-85
2024/04/06 08:41:08;;;;;;;2.30;1.90;;;;;;;;;;6022999;23;20173;-83
2024/04/06 08:43:42;;;;;;;2.42;2.10;;;;;;;;;;6022089;23;20656;-82
2024/04/06 08:46:11;;;;;;;3.25;2.50;;;;;;;;;;6043058;23;20168;-83
2024/04/06 08:48:40;;;;;;;2.78;2.10;;;;;;;;;;6067625;23;20172;-83
2024/04/06 08:51:09;;;;;;;2.60;1.73;;;;;;;;;;6045301;23;20217;-83
2024/04/06 08:53:35;;;;;;;2.20;1.98;;;;;;;;;;6070376;23;20162;-83
2024/04/06 08:56:04;;;;;;;2.30;2.10;;;;;;;;;;6046529;23;20175;-82
2024/04/06 08:58:31;;;;;;;3.63;2.03;;;;;;;;;;6070350;23;20167;-82
2024/04/06 09:00:59;;;;;;;2.75;2.00;;;;;;;;;;6046283;23;20174;-82
2024/04/06 09:03:26;;;;;;;3.15;2.10;;;;;;;;;;6046257;23;20171;-83
2024/04/06 09:05:54;;;;;;;2.40;2.20;;;;;;;;;;6046674;23;20173;-84
2024/04/06 09:08:21;;;;;;;2.92;2.05;;;;;;;;;;6023409;23;20211;-82
2024/04/06 09:10:54;;;;;;;2.33;1.90;;;;;;;;;;6045948;23;20196;-82
2024/04/06 09:13:22;;;;;;;2.47;1.85;;;;;;;;;;6023071;23;20254;-85
2024/04/06 09:15:47;;;;;;;3.20;1.80;;;;;;;;;;6046174;23;20170;-85
2024/04/06 09:18:14;;;;;;;2.17;1.85;;;;;;;;;;6022394;23;20204;-82
2024/04/06 09:20:41;;;;;;;2.42;1.90;;;;;;;;;;6022439;23;20173;-85
2024/04/06 09:23:07;;;;;;;4.57;2.33;;;;;;;;;;6022366;23;20666;-82
2024/04/06 09:25:33;;;;;;;2.28;1.90;;;;;;;;;;6022543;23;20251;-82
2024/04/06 09:28:05;;;;;;;2.92;2.20;;;;;;;;;;6022009;23;20181;-84
2024/04/06 09:30:38;;;;;;;2.08;1.88;;;;;;;;;;6022117;23;20192;-82
2024/04/06 09:33:08;;;;;;;2.00;1.80;;;;;;;;;;6045762;23;20188;-82
2024/04/06 09:35:37;;;;;;;4.65;2.08;;;;;;;;;;6045785;23;20172;-83
2024/04/06 09:38:04;;;;;;;2.88;2.10;;;;;;;;;;6040797;23;20207;-82
2024/04/06 09:40:31;;;;;;;4.03;2.50;;;;;;;;;;6064804;23;20172;-82
2024/04/06 09:42:57;;;;;;;3.83;2.42;;;;;;;;;;6040817;23;20171;-82
2024/04/06 09:45:24;;;;;;;3.05;2.42;;;;;;;;;;6017082;23;20216;-84
2024/04/06 09:47:51;;;;;;;4.18;2.53;;;;;;;;;;6038821;23;20177;-81
2024/04/06 09:50:18;;;;;;;2.50;2.30;;;;;;;;;;6036791;23;20194;-82
2024/04/06 09:52:44;;;;;;;2.78;2.25;;;;;;;;;;6063064;23;20177;-83
2024/04/06 09:55:15;;;;;;;2.58;2.17;;;;;;;;;;6065371;23;20152;-82
2024/04/06 09:57:44;;;;;;;2.50;2.30;;;;;;;;;;6040872;23;20176;-84
2024/04/06 10:00:12;;;;;;;3.03;2.08;;;;;;;;;;6041093;23;20177;-82
2024/04/06 10:02:39;;;;;;;2.45;2.10;;;;;;;;;;6040792;23;20184;-82
2024/04/06 10:05:05;;;;;;;1.73;1.63;;;;;;;;;;6017017;23;20243;-81
2024/04/06 10:07:32;;;;;;;2.40;2.13;;;;;;;;;;6065005;23;20175;-81
2024/04/06 10:10:06;;;;;;;2.47;1.73;;;;;;;;;;6017041;23;20203;-83
2024/04/06 10:12:37;;;;;;;4.72;2.05;;;;;;;;;;6041079;23;20176;-82
2024/04/06 10:15:08;;;;;;;1.70;1.60;;;;;;;;;;6017170;23;20176;-82
2024/04/06 10:17:42;;;;;;;4.15;3.08;;;;;;;;;;6040809;23;20253;-81
2024/04/06 10:20:09;;;;;;;3.00;2.45;;;;;;;;;;6017365;23;20172;-82
2024/04/06 10:22:44;;;;;;;3.92;2.50;;;;;;;;;;6064458;23;20175;-82
2024/04/06 10:25:11;;;;;;;2.03;1.88;;;;;;;;;;6017130;23;20256;-83
2024/04/06 10:27:38;;;;;;;2.90;1.70;;;;;;;;;;6041335;23;20169;-82
2024/04/06 10:30:05;;;;;;;2.42;1.52;;;;;;;;;;6066246;23;20192;-82
2024/04/06 10:32:33;;;;;;;2.35;1.40;;;;;;;;;;6019373;23;20188;-82
2024/04/06 10:35:03;;;;;;;3.55;1.52;;;;;;;;;;6019654;23;20181;-82
2024/04/06 10:37:30;;;;;;;2.10;1.30;;;;;;;;;;6024032;23;20204;-82
2024/04/06 10:39:56;;;;;;;1.52;1.15;;;;;;;;;;6047907;23;20169;-82
2024/04/06 10:42:30;;;;;;;1.38;1.27;;;;;;;;;;6026341;23;20280;-82
2024/04/06 10:44:59;;;;;;;2.85;1.70;;;;;;;;;;6024344;23;20168;-82
2024/04/06 10:47:25;;;;;;;2.63;1.60;;;;;;;;;;6047871;23;20176;-82
2024/04/06 10:49:52;;;;;;;2.92;1.50;;;;;;;;;;6024263;23;20199;-82
2024/04/06 10:52:28;;;;;;;3.08;1.50;;;;;;;;;;6049525;23;20172;-82
2024/04/06 10:55:08;;;;;;;3.38;1.48;;;;;;;;;;6047355;23;20165;-82
2024/04/06 10:57:36;;;;;;;1.83;1.40;;;;;;;;;;6047550;23;20168;-82
2024/04/06 11:00:08;;;;;;;2.67;1.60;;;;;;;;;;6024057;23;20168;-82
2024/04/06 11:02:37;;;;;;;1.77;1.40;;;;;;;;;;6046160;23;20176;-82
2024/04/06 11:05:11;;;;;;;2.88;1.52;;;;;;;;;;6023961;23;20192;-82
2024/04/06 11:07:37;;;;;;;3.35;1.38;;;;;;;;;;6047045;23;20609;-82
2024/04/06 11:10:04;;;;;;;3.13;1.40;;;;;;;;;;6023640;23;20227;-82
2024/04/06 11:12:30;;;;;;;1.77;1.35;;;;;;;;;;6023204;23;20259;-82
2024/04/06 11:14:59;;;;;;;2.13;1.58;;;;;;;;;;6046845;23;20247;-82
2024/04/06 11:17:28;;;;;;;1.42;1.33;;;;;;;;;;6046626;23;20711;-81
2024/04/06 11:20:02;;;;;;;2.00;1.35;;;;;;;;;;6023909;23;20176;-81
2024/04/06 11:22:32;;;;;;;2.10;1.30;;;;;;;;;;6024060;23;20164;-81
2024/04/06 11:24:59;;;;;;;2.65;1.45;;;;;;;;;;6046699;23;20168;-82
2024/04/06 11:27:25;;;;;;;1.88;1.70;;;;;;;;;;6046484;23;20680;-82
2024/04/06 11:29:52;;;;;;;1.40;1.30;;;;;;;;;;6046540;23;20169;-82
2024/04/06 11:32:21;;;;;;;2.17;1.52;;;;;;;;;;6023023;23;20608;-81
2024/04/06 11:34:48;;;;;;;2.08;1.50;;;;;;;;;;6023402;23;20184;-81
2024/04/06 11:37:19;;;;;;;1.80;1.30;;;;;;;;;;6018096;23;20656;-83
2024/04/06 11:39:47;;;;;;;1.42;1.33;;;;;;;;;;6065843;23;20169;-82
2024/04/06 11:42:14;;;;;;;2.30;1.40;;;;;;;;;;6065496;23;20185;-82
2024/04/06 11:44:40;;;;;;;1.52;1.42;;;;;;;;;;6018404;23;20165;-82
2024/04/06 11:47:06;;;;;;;1.98;1.40;;;;;;;;;;6041968;23;20177;-81
2024/04/06 11:49:33;;;;;;;1.52;1.42;;;;;;;;;;6018603;23;20268;-82
2024/04/06 11:51:59;;;;;;;3.63;1.40;;;;;;;;;;6018232;23;20528;-82
2024/04/06 11:54:26;;;;;;;2.92;1.50;;;;;;;;;;6041608;23;20173;-82
2024/04/06 11:56:53;;;;;;;1.40;1.13;;;;;;;;;;6065566;23;20248;-81
2024/04/06 11:59:20;;;;;;;1.67;1.50;;;;;;;;;;6041888;23;20172;-81
2024/04/06 12:01:46;;;;;;;1.60;1.30;;;;;;;;;;6017985;23;20228;-81
2024/04/06 12:04:12;;;;;;;2.20;1.30;;;;;;;;;;6065833;23;20169;-82
2024/04/06 12:06:40;;;;;;;2.08;1.10;;;;;;;;;;6040868;23;20173;-81
2024/04/06 12:09:06;;;;;;;1.88;1.30;;;;;;;;;;6018214;23;20173;-82
2024/04/06 12:11:32;;;;;;;1.38;1.27;;;;;;;;;;6065194;23;20529;-83
2024/04/06 12:13:59;;;;;;;1.75;1.30;;;;;;;;;;6065586;23;20255;-81
2024/04/06 12:16:28;;;;;;;1.75;1.23;;;;;;;;;;6065500;23;20173;-82
2024/04/06 12:18:55;;;;;;;1.80;1.30;;;;;;;;;;6065141;23;20264;-81
2024/04/06 12:21:23;;;;;;;1.63;1.20;;;;;;;;;;6064601;23;20177;-81
2024/04/06 12:23:49;;;;;;;1.60;1.30;;;;;;;;;;6065389;23;20241;-81
2024/04/06 12:26:16;;;;;;;3.20;1.17;;;;;;;;;;6042116;23;20688;-81
2024/04/06 12:28:43;;;;;;;1.40;1.10;;;;;;;;;;6041722;23;20169;-82
2024/04/06 12:31:09;;;;;;;2.63;1.40;;;;;;;;;;6041408;23;20251;-81
2024/04/06 12:33:35;;;;;;;2.78;1.30;;;;;;;;;;6065041;23;20265;-82
2024/04/06 12:38:55;;;;;;;2.88;1.45;;;;;;;;;;6041392;23;20200;-81
2024/04/06 12:41:21;;;;;;;1.35;1.10;;;;;;;;;;6017898;23;20181;-80
2024/04/06 12:43:48;;;;;;;1.55;1.42;;;;;;;;;;6065199;23;20166;-82
2024/04/06 12:46:14;;;;;;;1.25;1.15;;;;;;;;;;6017665;23;20192;-81
2024/04/06 12:48:41;;;;;;;1.20;1.10;;;;;;;;;;6040909;23;20481;-81
2024/04/06 12:51:07;;;;;;;1.73;1.20;;;;;;;;;;6039947;23;20228;-81
2024/04/06 12:53:33;;;;;;;2.15;1.20;;;;;;;;;;6017590;23;20174;-82
2024/04/06 12:56:02;;;;;;;2.55;1.20;;;;;;;;;;6041766;23;20175;-81
2024/04/06 12:58:32;;;;;;;1.20;1.00;;;;;;;;;;6040824;23;20624;-81
2024/04/06 13:01:00;;;;;;;1.60;1.10;;;;;;;;;;6017895;23;20257;-81
2024/04/06 13:03:28;;;;;;;1.20;1.10;;;;;;;;;;6064217;23;20204;-81
2024/04/06 13:05:59;;;;;;;1.67;1.00;;;;;;;;;;6017887;23;20173;-81
2024/04/06 13:08:26;;;;;;;1.38;1.00;;;;;;;;;;6041336;23;20558;-80
2024/04/06 13:10:52;;;;;;;2.72;1.00;;;;;;;;;;6017486;23;20192;-81
2024/04/06 13:13:18;;;;;;;1.13;1.02;;;;;;;;;;6064554;23;20180;-81
2024/04/06 13:15:47;;;;;;;1.95;1.00;;;;;;;;;;6040879;23;20256;-81
2024/04/06 13:18:14;;;;;;;1.65;1.20;;;;;;;;;;6040828;23;20632;-81
2024/04/06 13:20:47;;;;;;;1.30;1.20;;;;;;;;;;6040959;23;20177;-81
2024/04/06 13:23:18;;;;;;;1.08;1.00;;;;;;;;;;6017517;23;20166;-81
2024/04/06 13:25:44;;;;;;;2.33;1.10;;;;;;;;;;6040966;23;20174;-81
2024/04/06 13:28:10;;;;;;;3.08;1.20;;;;;;;;;;6040672;23;20268;-80
2024/04/06 13:30:36;;;;;;;1.95;1.40;;;;;;;;;;6064487;23;20189;-80
2024/04/06 13:33:03;;;;;;;1.40;1.20;;;;;;;;;;6040507;23;20172;-81
2024/04/06 13:35:30;;;;;;;1.02;0.93;;;;;;;;;;6017236;23;20220;-81
2024/04/06 13:37:59;;;;;;;1.25;1.15;;;;;;;;;;6040893;23;20212;-80
2024/04/06 13:40:25;;;;;;;1.20;1.00;;;;;;;;;;6064700;23;20165;-80
2024/04/06 13:42:51;;;;;;;1.05;1.02;;;;;;;;;;6017609;23;20176;-80
2024/04/06 13:45:17;;;;;;;2.13;1.20;;;;;;;;;;6040681;23;20200;-80
2024/04/06 13:47:47;;;;;;;1.58;1.23;;;;;;;;;;6040854;23;20173;-79
2024/04/06 13:50:13;;;;;;;2.10;1.30;;;;;;;;;;6017174;23;20215;-80
2024/04/06 13:52:39;;;;;;;2.25;1.20;;;;;;;;;;6064467;23;20632;-80
2024/04/06 13:55:07;;;;;;;2.08;1.13;;;;;;;;;;6064763;23;20187;-80
2024/04/06 13:57:33;;;;;;;2.65;1.30;;;;;;;;;;6016685;23;20212;-80
2024/04/06 13:59:59;;;;;;;2.10;1.17;;;;;;;;;;6064054;23;20177;-79
2024/04/06 14:02:27;;;;;;;1.45;1.23;;;;;;;;;;6040460;23;20165;-82
2024/04/06 14:04:55;;;;;;;3.10;1.30;;;;;;;;;;6018633;23;20184;-80
2024/04/06 14:07:22;;;;;;;1.05;0.82;;;;;;;;;;6042086;23;20184;-80
2024/04/06 14:09:49;;;;;;;1.10;1.00;;;;;;;;;;6065063;23;20228;-77
2024/04/06 14:12:18;;;;;;;1.65;0.90;;;;;;;;;;6065023;23;20188;-77
2024/04/06 14:14:45;;;;;;;1.73;1.10;;;;;;;;;;6064935;23;20169;-79
2024/04/06 14:17:11;;;;;;;1.58;1.30;;;;;;;;;;6064910;23;20166;-77
2024/04/06 14:19:39;;;;;;;2.05;1.13;;;;;;;;;;6064837;23;20165;-79
2024/04/06 14:22:06;;;;;;;1.98;1.10;;;;;;;;;;6065030;23;20201;-78
2024/04/06 14:24:36;;;;;;;2.58;1.20;;;;;;;;;;6064941;23;20169;-80
2024/04/06 14:27:03;;;;;;;1.73;1.17;;;;;;;;;;6064385;23;20196;-77
2024/04/06 14:29:33;;;;;;;4.53;1.30;;;;;;;;;;6064905;23;20166;-77
2024/04/06 14:31:59;;;;;;;1.85;1.30;;;;;;;;;;6064684;23;20188;-78
2024/04/06 14:34:25;;;;;;;2.70;1.30;;;;;;;;;;6064747;23;20169;-78
2024/04/06 14:36:52;;;;;;;2.15;1.33;;;;;;;;;;6064806;23;20268;-78
2024/04/06 14:39:18;;;;;;;1.20;1.10;;;;;;;;;;6064702;23;20169;-78
2024/04/06 14:41:44;;;;;;;3.08;1.20;;;;;;;;;;6064718;23;20177;-78
2024/04/06 14:44:12;;;;;;;1.45;1.30;;;;;;;;;;6064785;23;20172;-79
2024/04/06 14:46:38;;;;;;;1.30;1.20;;;;;;;;;;6064919;23;20256;-76